sensor_id;sensor_type;location;lat;lon;timestamp;P1;durP1;ratioP1;P2;durP2;ratioP2
5465;SDS011;2755;50.728;7.108;2023-08-06T00:00:15;170.20;;;116.97;;
5465;SDS011;2755;50.728;7.108;2023-08-06T00:02:41;174.10;;;125.67;;
5465;SDS011;2755;50.728;7.108;2023-08-06T00:05:06;177.30;;;129.13;;
5465;SDS011;2755;50.728;7.108;2023-08-06T00:07:32;179.23;;;135.03;;
5465;SDS011;2755;50.728;7.108;2023-08-06T00:09:58;177.90;;;132.93;;
5465;SDS011;2755;50.728;7.108;2023-08-06T00:12:23;177.50;;;132.07;;
5465;SDS011;2755;50.728;7.108;2023-08-06T00:14:50;181.03;;;138.27;;
5465;SDS011;2755;50.728;7.108;2023-08-06T00:17:16;178.87;;;134.23;;
5465;SDS011;2755;50.728;7.108;2023-08-06T00:19:42;177.87;;;132.53;;
5465;SDS011;2755;50.728;7.108;2023-08-06T00:22:07;177.67;;;131.37;;
5465;SDS011;2755;50.728;7.108;2023-08-06T00:24:34;176.63;;;129.53;;
5465;SDS011;2755;50.728;7.108;2023-08-06T00:27:00;174.53;;;129.40;;
5465;SDS011;2755;50.728;7.108;2023-08-06T00:29:25;179.33;;;136.37;;
5465;SDS011;2755;50.728;7.108;2023-08-06T00:31:51;177.13;;;133.47;;
5465;SDS011;2755;50.728;7.108;2023-08-06T00:34:17;177.17;;;132.17;;
5465;SDS011;2755;50.728;7.108;2023-08-06T00:36:42;178.10;;;133.63;;
5465;SDS011;2755;50.728;7.108;2023-08-06T00:39:08;180.40;;;138.07;;
5465;SDS011;2755;50.728;7.108;2023-08-06T00:41:33;180.57;;;136.57;;
5465;SDS011;2755;50.728;7.108;2023-08-06T00:43:59;179.97;;;137.80;;
5465;SDS011;2755;50.728;7.108;2023-08-06T00:46:25;181.07;;;138.03;;
5465;SDS011;2755;50.728;7.108;2023-08-06T00:48:51;180.50;;;137.90;;
5465;SDS011;2755;50.728;7.108;2023-08-06T00:51:17;183.43;;;141.90;;
5465;SDS011;2755;50.728;7.108;2023-08-06T00:53:44;183.50;;;144.73;;
5465;SDS011;2755;50.728;7.108;2023-08-06T00:56:10;182.17;;;141.03;;
5465;SDS011;2755;50.728;7.108;2023-08-06T00:58:36;185.63;;;145.23;;
5465;SDS011;2755;50.728;7.108;2023-08-06T01:01:02;188.23;;;148.87;;
5465;SDS011;2755;50.728;7.108;2023-08-06T01:03:28;186.87;;;147.47;;
5465;SDS011;2755;50.728;7.108;2023-08-06T01:05:54;186.60;;;145.90;;
5465;SDS011;2755;50.728;7.108;2023-08-06T01:13:54;192.53;;;152.57;;
5465;SDS011;2755;50.728;7.108;2023-08-06T01:16:23;188.70;;;149.80;;
5465;SDS011;2755;50.728;7.108;2023-08-06T01:18:49;193.17;;;159.20;;
5465;SDS011;2755;50.728;7.108;2023-08-06T01:21:15;190.33;;;153.97;;
5465;SDS011;2755;50.728;7.108;2023-08-06T01:23:42;191.77;;;153.30;;
5465;SDS011;2755;50.728;7.108;2023-08-06T01:29:15;189.30;;;151.70;;
5465;SDS011;2755;50.728;7.108;2023-08-06T01:31:50;192.13;;;155.97;;
5465;SDS011;2755;50.728;7.108;2023-08-06T01:34:17;192.37;;;154.87;;
5465;SDS011;2755;50.728;7.108;2023-08-06T01:36:47;190.13;;;151.47;;
5465;SDS011;2755;50.728;7.108;2023-08-06T01:39:12;186.17;;;146.77;;
5465;SDS011;2755;50.728;7.108;2023-08-06T01:41:38;186.80;;;145.73;;
5465;SDS011;2755;50.728;7.108;2023-08-06T01:44:04;192.30;;;157.80;;
5465;SDS011;2755;50.728;7.108;2023-08-06T01:46:30;193.60;;;158.77;;
5465;SDS011;2755;50.728;7.108;2023-08-06T01:48:55;192.07;;;156.90;;
5465;SDS011;2755;50.728;7.108;2023-08-06T01:51:21;191.77;;;156.77;;
5465;SDS011;2755;50.728;7.108;2023-08-06T01:53:47;192.40;;;156.77;;
5465;SDS011;2755;50.728;7.108;2023-08-06T01:56:12;193.17;;;156.53;;
5465;SDS011;2755;50.728;7.108;2023-08-06T01:58:38;191.10;;;155.70;;
5465;SDS011;2755;50.728;7.108;2023-08-06T02:01:03;186.87;;;148.17;;
5465;SDS011;2755;50.728;7.108;2023-08-06T02:03:29;183.63;;;143.20;;
5465;SDS011;2755;50.728;7.108;2023-08-06T02:05:55;178.53;;;136.73;;
5465;SDS011;2755;50.728;7.108;2023-08-06T02:08:20;180.57;;;139.23;;
5465;SDS011;2755;50.728;7.108;2023-08-06T02:10:46;179.03;;;138.43;;
5465;SDS011;2755;50.728;7.108;2023-08-06T02:13:11;182.37;;;139.13;;
5465;SDS011;2755;50.728;7.108;2023-08-06T02:15:47;185.30;;;148.50;;
5465;SDS011;2755;50.728;7.108;2023-08-06T02:18:12;185.27;;;146.60;;
5465;SDS011;2755;50.728;7.108;2023-08-06T02:20:39;184.97;;;146.10;;
5465;SDS011;2755;50.728;7.108;2023-08-06T02:23:05;189.40;;;155.67;;
5465;SDS011;2755;50.728;7.108;2023-08-06T02:25:30;185.40;;;147.93;;
5465;SDS011;2755;50.728;7.108;2023-08-06T02:27:56;193.87;;;163.77;;
5465;SDS011;2755;50.728;7.108;2023-08-06T02:30:22;190.43;;;156.03;;
5465;SDS011;2755;50.728;7.108;2023-08-06T02:32:47;192.47;;;161.70;;
5465;SDS011;2755;50.728;7.108;2023-08-06T02:35:13;198.67;;;166.93;;
5465;SDS011;2755;50.728;7.108;2023-08-06T02:37:39;193.97;;;165.37;;
5465;SDS011;2755;50.728;7.108;2023-08-06T02:40:05;196.33;;;170.70;;
5465;SDS011;2755;50.728;7.108;2023-08-06T02:42:31;200.90;;;177.73;;
5465;SDS011;2755;50.728;7.108;2023-08-06T02:44:57;200.87;;;176.20;;
5465;SDS011;2755;50.728;7.108;2023-08-06T02:47:22;204.80;;;182.23;;
5465;SDS011;2755;50.728;7.108;2023-08-06T02:49:48;202.83;;;180.47;;
5465;SDS011;2755;50.728;7.108;2023-08-06T02:52:14;220.30;;;197.00;;
5465;SDS011;2755;50.728;7.108;2023-08-06T02:54:40;209.37;;;186.63;;
5465;SDS011;2755;50.728;7.108;2023-08-06T02:57:05;206.03;;;183.00;;
5465;SDS011;2755;50.728;7.108;2023-08-06T02:59:31;205.23;;;182.13;;
5465;SDS011;2755;50.728;7.108;2023-08-06T03:01:57;196.27;;;168.53;;
5465;SDS011;2755;50.728;7.108;2023-08-06T03:04:23;206.60;;;183.90;;
5465;SDS011;2755;50.728;7.108;2023-08-06T03:06:49;200.87;;;178.07;;
5465;SDS011;2755;50.728;7.108;2023-08-06T03:09:15;198.57;;;172.60;;
5465;SDS011;2755;50.728;7.108;2023-08-06T03:11:41;203.03;;;179.70;;
5465;SDS011;2755;50.728;7.108;2023-08-06T03:14:07;197.73;;;169.20;;
5465;SDS011;2755;50.728;7.108;2023-08-06T03:16:32;198.27;;;170.07;;
5465;SDS011;2755;50.728;7.108;2023-08-06T03:18:58;200.97;;;177.33;;
5465;SDS011;2755;50.728;7.108;2023-08-06T03:21:24;196.27;;;169.23;;
5465;SDS011;2755;50.728;7.108;2023-08-06T03:23:50;197.97;;;171.07;;
5465;SDS011;2755;50.728;7.108;2023-08-06T03:26:15;196.30;;;167.47;;
5465;SDS011;2755;50.728;7.108;2023-08-06T03:28:41;200.13;;;176.27;;
5465;SDS011;2755;50.728;7.108;2023-08-06T03:31:07;196.87;;;167.43;;
5465;SDS011;2755;50.728;7.108;2023-08-06T03:33:33;196.40;;;164.03;;
5465;SDS011;2755;50.728;7.108;2023-08-06T03:35:58;193.77;;;160.30;;
5465;SDS011;2755;50.728;7.108;2023-08-06T03:38:24;192.50;;;157.40;;
5465;SDS011;2755;50.728;7.108;2023-08-06T03:40:50;198.03;;;168.67;;
5465;SDS011;2755;50.728;7.108;2023-08-06T03:43:16;194.30;;;158.87;;
5465;SDS011;2755;50.728;7.108;2023-08-06T03:45:41;197.83;;;165.47;;
5465;SDS011;2755;50.728;7.108;2023-08-06T03:48:07;194.73;;;160.10;;
5465;SDS011;2755;50.728;7.108;2023-08-06T03:50:34;189.53;;;150.43;;
5465;SDS011;2755;50.728;7.108;2023-08-06T03:53:00;196.07;;;161.10;;
5465;SDS011;2755;50.728;7.108;2023-08-06T03:55:25;195.87;;;160.50;;
5465;SDS011;2755;50.728;7.108;2023-08-06T03:57:51;196.27;;;161.33;;
5465;SDS011;2755;50.728;7.108;2023-08-06T04:00:17;196.10;;;163.23;;
5465;SDS011;2755;50.728;7.108;2023-08-06T04:02:42;191.43;;;154.23;;
5465;SDS011;2755;50.728;7.108;2023-08-06T04:05:08;198.03;;;166.47;;
5465;SDS011;2755;50.728;7.108;2023-08-06T04:07:34;194.43;;;159.67;;
5465;SDS011;2755;50.728;7.108;2023-08-06T04:10:00;196.57;;;164.40;;
5465;SDS011;2755;50.728;7.108;2023-08-06T04:12:28;191.70;;;155.23;;
5465;SDS011;2755;50.728;7.108;2023-08-06T04:14:54;197.10;;;165.80;;
5465;SDS011;2755;50.728;7.108;2023-08-06T04:17:21;184.13;;;143.60;;
5465;SDS011;2755;50.728;7.108;2023-08-06T04:19:50;193.67;;;157.77;;
5465;SDS011;2755;50.728;7.108;2023-08-06T04:22:16;194.40;;;158.07;;
5465;SDS011;2755;50.728;7.108;2023-08-06T04:24:42;191.53;;;154.90;;
5465;SDS011;2755;50.728;7.108;2023-08-06T04:27:09;195.23;;;160.80;;
5465;SDS011;2755;50.728;7.108;2023-08-06T04:29:35;190.97;;;150.03;;
5465;SDS011;2755;50.728;7.108;2023-08-06T04:32:01;195.07;;;160.30;;
5465;SDS011;2755;50.728;7.108;2023-08-06T04:34:28;197.60;;;163.80;;
5465;SDS011;2755;50.728;7.108;2023-08-06T04:36:54;193.73;;;158.93;;
5465;SDS011;2755;50.728;7.108;2023-08-06T04:39:19;197.73;;;165.67;;
5465;SDS011;2755;50.728;7.108;2023-08-06T04:41:45;210.47;;;175.13;;
5465;SDS011;2755;50.728;7.108;2023-08-06T04:44:10;209.57;;;176.93;;
5465;SDS011;2755;50.728;7.108;2023-08-06T04:46:36;189.97;;;154.03;;
5465;SDS011;2755;50.728;7.108;2023-08-06T04:49:02;191.53;;;154.13;;
5465;SDS011;2755;50.728;7.108;2023-08-06T04:51:27;191.07;;;157.20;;
5465;SDS011;2755;50.728;7.108;2023-08-06T04:53:53;189.97;;;152.97;;
5465;SDS011;2755;50.728;7.108;2023-08-06T04:56:19;190.23;;;159.50;;
5465;SDS011;2755;50.728;7.108;2023-08-06T04:58:44;191.77;;;161.73;;
5465;SDS011;2755;50.728;7.108;2023-08-06T05:01:10;198.37;;;173.50;;
5465;SDS011;2755;50.728;7.108;2023-08-06T05:03:36;189.27;;;160.43;;
5465;SDS011;2755;50.728;7.108;2023-08-06T05:06:02;205.93;;;183.37;;
5465;SDS011;2755;50.728;7.108;2023-08-06T05:08:27;216.10;;;193.03;;
5465;SDS011;2755;50.728;7.108;2023-08-06T05:10:53;224.53;;;201.00;;
5465;SDS011;2755;50.728;7.108;2023-08-06T05:13:18;224.57;;;201.03;;
5465;SDS011;2755;50.728;7.108;2023-08-06T05:15:44;223.13;;;199.60;;
5465;SDS011;2755;50.728;7.108;2023-08-06T05:18:11;230.83;;;206.97;;
5465;SDS011;2755;50.728;7.108;2023-08-06T05:20:38;216.33;;;193.27;;
5465;SDS011;2755;50.728;7.108;2023-08-06T05:23:04;215.30;;;192.17;;
5465;SDS011;2755;50.728;7.108;2023-08-06T05:25:30;207.37;;;184.80;;
5465;SDS011;2755;50.728;7.108;2023-08-06T05:27:56;196.63;;;169.33;;
5465;SDS011;2755;50.728;7.108;2023-08-06T05:30:22;203.53;;;181.10;;
5465;SDS011;2755;50.728;7.108;2023-08-06T05:32:47;206.93;;;184.27;;
5465;SDS011;2755;50.728;7.108;2023-08-06T05:35:13;197.03;;;172.17;;
5465;SDS011;2755;50.728;7.108;2023-08-06T05:37:39;196.53;;;169.17;;
5465;SDS011;2755;50.728;7.108;2023-08-06T05:40:04;199.17;;;171.17;;
5465;SDS011;2755;50.728;7.108;2023-08-06T05:42:31;198.23;;;171.10;;
5465;SDS011;2755;50.728;7.108;2023-08-06T05:44:57;199.80;;;174.63;;
5465;SDS011;2755;50.728;7.108;2023-08-06T05:47:23;199.83;;;174.30;;
5465;SDS011;2755;50.728;7.108;2023-08-06T05:49:48;209.57;;;186.80;;
5465;SDS011;2755;50.728;7.108;2023-08-06T05:52:14;207.83;;;185.23;;
5465;SDS011;2755;50.728;7.108;2023-08-06T05:54:39;199.73;;;175.00;;
5465;SDS011;2755;50.728;7.108;2023-08-06T05:57:05;194.93;;;165.47;;
5465;SDS011;2755;50.728;7.108;2023-08-06T05:59:31;199.53;;;174.90;;
5465;SDS011;2755;50.728;7.108;2023-08-06T06:01:57;204.37;;;181.77;;
5465;SDS011;2755;50.728;7.108;2023-08-06T06:04:23;197.83;;;171.80;;
5465;SDS011;2755;50.728;7.108;2023-08-06T06:06:49;197.47;;;170.70;;
5465;SDS011;2755;50.728;7.108;2023-08-06T06:09:14;197.67;;;170.50;;
5465;SDS011;2755;50.728;7.108;2023-08-06T06:11:40;196.27;;;166.83;;
5465;SDS011;2755;50.728;7.108;2023-08-06T06:14:06;193.53;;;163.57;;
5465;SDS011;2755;50.728;7.108;2023-08-06T06:16:31;194.83;;;163.13;;
5465;SDS011;2755;50.728;7.108;2023-08-06T06:18:57;193.30;;;160.13;;
5465;SDS011;2755;50.728;7.108;2023-08-06T06:21:25;191.67;;;158.20;;
5465;SDS011;2755;50.728;7.108;2023-08-06T06:23:51;190.27;;;157.10;;
5465;SDS011;2755;50.728;7.108;2023-08-06T06:26:20;193.60;;;160.90;;
5465;SDS011;2755;50.728;7.108;2023-08-06T06:28:46;195.80;;;164.80;;
5465;SDS011;2755;50.728;7.108;2023-08-06T06:31:11;193.67;;;162.63;;
5465;SDS011;2755;50.728;7.108;2023-08-06T06:33:37;193.47;;;162.00;;
5465;SDS011;2755;50.728;7.108;2023-08-06T06:36:03;189.07;;;153.63;;
5465;SDS011;2755;50.728;7.108;2023-08-06T06:38:29;217.17;;;193.77;;
5465;SDS011;2755;50.728;7.108;2023-08-06T06:40:55;195.23;;;165.57;;
5465;SDS011;2755;50.728;7.108;2023-08-06T06:43:22;196.07;;;163.67;;
5465;SDS011;2755;50.728;7.108;2023-08-06T06:45:52;193.57;;;160.63;;
5465;SDS011;2755;50.728;7.108;2023-08-06T06:48:19;193.13;;;159.03;;
5465;SDS011;2755;50.728;7.108;2023-08-06T06:50:47;199.43;;;170.53;;
5465;SDS011;2755;50.728;7.108;2023-08-06T06:53:13;197.40;;;167.47;;
5465;SDS011;2755;50.728;7.108;2023-08-06T06:55:39;197.90;;;165.60;;
5465;SDS011;2755;50.728;7.108;2023-08-06T06:58:04;199.83;;;168.13;;
5465;SDS011;2755;50.728;7.108;2023-08-06T07:00:30;200.67;;;170.50;;
5465;SDS011;2755;50.728;7.108;2023-08-06T07:02:56;200.37;;;167.93;;
5465;SDS011;2755;50.728;7.108;2023-08-06T07:05:22;196.37;;;162.23;;
5465;SDS011;2755;50.728;7.108;2023-08-06T07:07:48;201.30;;;171.10;;
5465;SDS011;2755;50.728;7.108;2023-08-06T07:10:14;206.00;;;179.17;;
5465;SDS011;2755;50.728;7.108;2023-08-06T07:12:39;197.13;;;163.10;;
5465;SDS011;2755;50.728;7.108;2023-08-06T07:15:06;198.73;;;165.83;;
5465;SDS011;2755;50.728;7.108;2023-08-06T07:17:32;194.27;;;161.07;;
5465;SDS011;2755;50.728;7.108;2023-08-06T07:19:57;194.53;;;163.60;;
5465;SDS011;2755;50.728;7.108;2023-08-06T07:22:23;187.70;;;149.90;;
5465;SDS011;2755;50.728;7.108;2023-08-06T07:24:48;190.27;;;153.33;;
5465;SDS011;2755;50.728;7.108;2023-08-06T07:27:14;188.23;;;151.10;;
5465;SDS011;2755;50.728;7.108;2023-08-06T07:29:40;189.07;;;153.03;;
5465;SDS011;2755;50.728;7.108;2023-08-06T07:32:06;191.53;;;157.73;;
5465;SDS011;2755;50.728;7.108;2023-08-06T07:34:32;193.67;;;161.00;;
5465;SDS011;2755;50.728;7.108;2023-08-06T07:36:58;195.10;;;163.80;;
5465;SDS011;2755;50.728;7.108;2023-08-06T07:39:24;196.17;;;163.77;;
5465;SDS011;2755;50.728;7.108;2023-08-06T07:41:50;197.60;;;167.47;;
5465;SDS011;2755;50.728;7.108;2023-08-06T07:44:16;197.13;;;167.70;;
5465;SDS011;2755;50.728;7.108;2023-08-06T07:46:41;184.33;;;145.37;;
5465;SDS011;2755;50.728;7.108;2023-08-06T07:49:08;180.30;;;138.03;;
5465;SDS011;2755;50.728;7.108;2023-08-06T07:51:35;171.73;;;123.27;;
5465;SDS011;2755;50.728;7.108;2023-08-06T07:54:01;180.30;;;136.87;;
5465;SDS011;2755;50.728;7.108;2023-08-06T07:56:28;180.27;;;137.47;;
5465;SDS011;2755;50.728;7.108;2023-08-06T07:58:54;186.83;;;149.90;;
5465;SDS011;2755;50.728;7.108;2023-08-06T08:01:19;186.87;;;148.47;;
5465;SDS011;2755;50.728;7.108;2023-08-06T08:03:45;190.13;;;151.97;;
5465;SDS011;2755;50.728;7.108;2023-08-06T08:06:10;191.57;;;153.80;;
5465;SDS011;2755;50.728;7.108;2023-08-06T08:08:36;192.17;;;154.97;;
5465;SDS011;2755;50.728;7.108;2023-08-06T08:11:03;194.90;;;159.93;;
5465;SDS011;2755;50.728;7.108;2023-08-06T08:13:29;198.67;;;165.40;;
5465;SDS011;2755;50.728;7.108;2023-08-06T08:15:58;194.67;;;158.43;;
5465;SDS011;2755;50.728;7.108;2023-08-06T08:18:24;195.57;;;166.93;;
5465;SDS011;2755;50.728;7.108;2023-08-06T08:20:50;190.03;;;153.67;;
5465;SDS011;2755;50.728;7.108;2023-08-06T08:23:16;182.30;;;140.47;;
5465;SDS011;2755;50.728;7.108;2023-08-06T08:25:42;185.10;;;145.73;;
5465;SDS011;2755;50.728;7.108;2023-08-06T08:28:08;183.80;;;142.80;;
5465;SDS011;2755;50.728;7.108;2023-08-06T08:30:33;180.83;;;136.03;;
5465;SDS011;2755;50.728;7.108;2023-08-06T08:32:59;184.77;;;148.77;;
5465;SDS011;2755;50.728;7.108;2023-08-06T08:35:24;192.00;;;159.27;;
5465;SDS011;2755;50.728;7.108;2023-08-06T08:37:50;190.77;;;157.20;;
5465;SDS011;2755;50.728;7.108;2023-08-06T08:40:16;177.90;;;131.30;;
5465;SDS011;2755;50.728;7.108;2023-08-06T08:42:42;187.53;;;149.97;;
5465;SDS011;2755;50.728;7.108;2023-08-06T08:45:14;192.97;;;158.70;;
5465;SDS011;2755;50.728;7.108;2023-08-06T08:47:40;197.93;;;166.57;;
5465;SDS011;2755;50.728;7.108;2023-08-06T08:50:08;195.60;;;162.70;;
5465;SDS011;2755;50.728;7.108;2023-08-06T08:52:35;194.00;;;161.40;;
5465;SDS011;2755;50.728;7.108;2023-08-06T08:55:03;194.37;;;164.00;;
5465;SDS011;2755;50.728;7.108;2023-08-06T08:57:31;193.37;;;158.40;;
5465;SDS011;2755;50.728;7.108;2023-08-06T08:59:57;190.50;;;151.03;;
5465;SDS011;2755;50.728;7.108;2023-08-06T09:02:23;192.17;;;152.73;;
5465;SDS011;2755;50.728;7.108;2023-08-06T09:04:52;191.67;;;152.07;;
5465;SDS011;2755;50.728;7.108;2023-08-06T09:07:19;188.23;;;145.80;;
5465;SDS011;2755;50.728;7.108;2023-08-06T09:09:48;185.63;;;137.67;;
5465;SDS011;2755;50.728;7.108;2023-08-06T09:12:16;180.47;;;133.30;;
5465;SDS011;2755;50.728;7.108;2023-08-06T09:14:42;182.67;;;138.03;;
5465;SDS011;2755;50.728;7.108;2023-08-06T09:17:09;181.30;;;136.83;;
5465;SDS011;2755;50.728;7.108;2023-08-06T09:19:46;180.00;;;136.50;;
5465;SDS011;2755;50.728;7.108;2023-08-06T09:22:13;174.57;;;128.87;;
5465;SDS011;2755;50.728;7.108;2023-08-06T09:24:41;179.10;;;137.50;;
5465;SDS011;2755;50.728;7.108;2023-08-06T09:27:13;171.27;;;125.03;;
5465;SDS011;2755;50.728;7.108;2023-08-06T09:29:43;169.60;;;121.90;;
5465;SDS011;2755;50.728;7.108;2023-08-06T09:32:10;163.30;;;113.20;;
5465;SDS011;2755;50.728;7.108;2023-08-06T09:34:38;166.40;;;115.50;;
5465;SDS011;2755;50.728;7.108;2023-08-06T09:37:05;168.73;;;120.17;;
5465;SDS011;2755;50.728;7.108;2023-08-06T09:39:31;173.40;;;125.80;;
5465;SDS011;2755;50.728;7.108;2023-08-06T09:42:00;171.73;;;125.43;;
5465;SDS011;2755;50.728;7.108;2023-08-06T09:44:27;164.77;;;115.30;;
5465;SDS011;2755;50.728;7.108;2023-08-06T09:46:55;168.90;;;121.27;;
5465;SDS011;2755;50.728;7.108;2023-08-06T09:49:26;169.67;;;119.87;;
5465;SDS011;2755;50.728;7.108;2023-08-06T09:51:53;170.37;;;121.47;;
5465;SDS011;2755;50.728;7.108;2023-08-06T09:54:23;174.63;;;127.37;;
5465;SDS011;2755;50.728;7.108;2023-08-06T09:56:53;172.27;;;125.07;;
5465;SDS011;2755;50.728;7.108;2023-08-06T09:59:25;180.87;;;135.30;;
5465;SDS011;2755;50.728;7.108;2023-08-06T10:01:51;176.97;;;132.47;;
5465;SDS011;2755;50.728;7.108;2023-08-06T10:04:19;176.90;;;129.83;;
5465;SDS011;2755;50.728;7.108;2023-08-06T10:06:48;177.63;;;131.07;;
5465;SDS011;2755;50.728;7.108;2023-08-06T10:09:14;172.77;;;123.07;;
5465;SDS011;2755;50.728;7.108;2023-08-06T10:11:40;170.27;;;122.17;;
5465;SDS011;2755;50.728;7.108;2023-08-06T10:14:12;173.87;;;124.13;;
5465;SDS011;2755;50.728;7.108;2023-08-06T10:16:51;174.17;;;125.83;;
5465;SDS011;2755;50.728;7.108;2023-08-06T10:19:18;179.53;;;135.53;;
5465;SDS011;2755;50.728;7.108;2023-08-06T10:24:46;189.47;;;148.47;;
5465;SDS011;2755;50.728;7.108;2023-08-06T10:27:22;198.53;;;167.43;;
5465;SDS011;2755;50.728;7.108;2023-08-06T10:33:05;199.70;;;170.40;;
5465;SDS011;2755;50.728;7.108;2023-08-06T10:35:38;219.10;;;195.70;;
5465;SDS011;2755;50.728;7.108;2023-08-06T10:38:16;222.97;;;199.37;;
5465;SDS011;2755;50.728;7.108;2023-08-06T10:43:36;229.57;;;205.47;;
5465;SDS011;2755;50.728;7.108;2023-08-06T10:46:10;212.97;;;190.07;;
5465;SDS011;2755;50.728;7.108;2023-08-06T10:48:40;194.77;;;167.27;;
5465;SDS011;2755;50.728;7.108;2023-08-06T10:51:10;202.27;;;178.43;;
5465;SDS011;2755;50.728;7.108;2023-08-06T10:53:37;197.60;;;171.53;;
5465;SDS011;2755;50.728;7.108;2023-08-06T10:56:16;203.23;;;178.50;;
5465;SDS011;2755;50.728;7.108;2023-08-06T10:58:49;211.20;;;188.13;;
5465;SDS011;2755;50.728;7.108;2023-08-06T11:01:16;205.80;;;182.83;;
5465;SDS011;2755;50.728;7.108;2023-08-06T11:03:43;196.37;;;167.50;;
5465;SDS011;2755;50.728;7.108;2023-08-06T11:06:10;190.93;;;155.60;;
5465;SDS011;2755;50.728;7.108;2023-08-06T11:08:46;183.97;;;147.67;;
5465;SDS011;2755;50.728;7.108;2023-08-06T11:11:14;178.73;;;136.47;;
5465;SDS011;2755;50.728;7.108;2023-08-06T11:13:43;174.30;;;130.03;;
5465;SDS011;2755;50.728;7.108;2023-08-06T11:16:17;169.47;;;119.77;;
5465;SDS011;2755;50.728;7.108;2023-08-06T11:18:43;169.93;;;120.80;;
5465;SDS011;2755;50.728;7.108;2023-08-06T11:21:09;174.37;;;128.47;;
5465;SDS011;2755;50.728;7.108;2023-08-06T11:23:36;172.33;;;125.03;;
5465;SDS011;2755;50.728;7.108;2023-08-06T11:26:02;171.97;;;122.20;;
5465;SDS011;2755;50.728;7.108;2023-08-06T11:28:28;166.53;;;112.40;;
5465;SDS011;2755;50.728;7.108;2023-08-06T11:30:54;169.93;;;121.23;;
5465;SDS011;2755;50.728;7.108;2023-08-06T11:33:24;172.90;;;125.60;;
5465;SDS011;2755;50.728;7.108;2023-08-06T11:35:51;173.80;;;129.70;;
5465;SDS011;2755;50.728;7.108;2023-08-06T11:38:17;175.53;;;131.60;;
5465;SDS011;2755;50.728;7.108;2023-08-06T11:40:47;184.23;;;146.03;;
5465;SDS011;2755;50.728;7.108;2023-08-06T11:43:13;183.80;;;144.80;;
5465;SDS011;2755;50.728;7.108;2023-08-06T11:45:39;180.83;;;139.87;;
5465;SDS011;2755;50.728;7.108;2023-08-06T11:48:08;182.17;;;140.10;;
5465;SDS011;2755;50.728;7.108;2023-08-06T11:50:36;182.37;;;143.53;;
5465;SDS011;2755;50.728;7.108;2023-08-06T11:53:05;182.10;;;145.43;;
5465;SDS011;2755;50.728;7.108;2023-08-06T11:55:31;184.33;;;142.40;;
5465;SDS011;2755;50.728;7.108;2023-08-06T11:57:59;180.33;;;139.57;;
5465;SDS011;2755;50.728;7.108;2023-08-06T12:00:29;188.50;;;140.83;;
5465;SDS011;2755;50.728;7.108;2023-08-06T12:02:54;179.30;;;139.27;;
5465;SDS011;2755;50.728;7.108;2023-08-06T12:05:22;176.53;;;135.27;;
5465;SDS011;2755;50.728;7.108;2023-08-06T12:07:52;176.70;;;134.30;;
5465;SDS011;2755;50.728;7.108;2023-08-06T12:10:19;184.73;;;146.23;;
5465;SDS011;2755;50.728;7.108;2023-08-06T12:12:46;174.20;;;130.63;;
5465;SDS011;2755;50.728;7.108;2023-08-06T12:15:12;176.50;;;133.20;;
5465;SDS011;2755;50.728;7.108;2023-08-06T12:17:38;180.73;;;140.57;;
5465;SDS011;2755;50.728;7.108;2023-08-06T12:20:05;179.73;;;137.23;;
5465;SDS011;2755;50.728;7.108;2023-08-06T12:22:32;181.50;;;141.40;;
5465;SDS011;2755;50.728;7.108;2023-08-06T12:25:02;178.30;;;137.27;;
5465;SDS011;2755;50.728;7.108;2023-08-06T12:27:33;182.67;;;141.70;;
5465;SDS011;2755;50.728;7.108;2023-08-06T12:29:58;180.47;;;138.90;;
5465;SDS011;2755;50.728;7.108;2023-08-06T12:32:24;176.60;;;133.47;;
5465;SDS011;2755;50.728;7.108;2023-08-06T12:34:50;194.23;;;163.30;;
5465;SDS011;2755;50.728;7.108;2023-08-06T12:37:16;181.37;;;142.20;;
5465;SDS011;2755;50.728;7.108;2023-08-06T12:39:41;180.23;;;144.13;;
5465;SDS011;2755;50.728;7.108;2023-08-06T12:42:07;181.03;;;142.43;;
5465;SDS011;2755;50.728;7.108;2023-08-06T12:44:33;182.40;;;145.20;;
5465;SDS011;2755;50.728;7.108;2023-08-06T12:46:59;192.13;;;164.10;;
5465;SDS011;2755;50.728;7.108;2023-08-06T12:49:24;185.33;;;150.63;;
5465;SDS011;2755;50.728;7.108;2023-08-06T12:51:51;182.27;;;145.93;;
5465;SDS011;2755;50.728;7.108;2023-08-06T12:54:18;182.60;;;143.87;;
5465;SDS011;2755;50.728;7.108;2023-08-06T12:56:45;181.17;;;143.57;;
5465;SDS011;2755;50.728;7.108;2023-08-06T12:59:11;184.97;;;150.47;;
5465;SDS011;2755;50.728;7.108;2023-08-06T13:01:37;176.63;;;136.50;;
5465;SDS011;2755;50.728;7.108;2023-08-06T13:04:03;180.67;;;142.53;;
5465;SDS011;2755;50.728;7.108;2023-08-06T13:06:29;170.40;;;126.67;;
5465;SDS011;2755;50.728;7.108;2023-08-06T13:08:55;178.53;;;140.47;;
5465;SDS011;2755;50.728;7.108;2023-08-06T13:11:24;182.00;;;146.60;;
5465;SDS011;2755;50.728;7.108;2023-08-06T13:13:50;179.13;;;139.40;;
5465;SDS011;2755;50.728;7.108;2023-08-06T13:16:15;178.63;;;141.50;;
5465;SDS011;2755;50.728;7.108;2023-08-06T13:18:41;176.53;;;135.10;;
5465;SDS011;2755;50.728;7.108;2023-08-06T13:21:06;176.57;;;135.17;;
5465;SDS011;2755;50.728;7.108;2023-08-06T13:23:32;171.67;;;128.07;;
5465;SDS011;2755;50.728;7.108;2023-08-06T13:25:58;175.23;;;134.20;;
5465;SDS011;2755;50.728;7.108;2023-08-06T13:28:24;176.10;;;134.30;;
5465;SDS011;2755;50.728;7.108;2023-08-06T13:30:50;178.07;;;139.97;;
5465;SDS011;2755;50.728;7.108;2023-08-06T13:33:15;180.63;;;142.27;;
5465;SDS011;2755;50.728;7.108;2023-08-06T13:35:41;178.87;;;138.30;;
5465;SDS011;2755;50.728;7.108;2023-08-06T13:38:07;176.10;;;132.93;;
5465;SDS011;2755;50.728;7.108;2023-08-06T13:40:33;173.13;;;130.03;;
5465;SDS011;2755;50.728;7.108;2023-08-06T13:42:59;174.43;;;130.93;;
5465;SDS011;2755;50.728;7.108;2023-08-06T13:45:25;177.67;;;137.87;;
5465;SDS011;2755;50.728;7.108;2023-08-06T13:47:51;178.53;;;139.00;;
5465;SDS011;2755;50.728;7.108;2023-08-06T13:50:17;165.30;;;116.50;;
5465;SDS011;2755;50.728;7.108;2023-08-06T13:52:44;186.47;;;151.97;;
5465;SDS011;2755;50.728;7.108;2023-08-06T13:55:09;174.87;;;131.10;;
5465;SDS011;2755;50.728;7.108;2023-08-06T13:57:35;175.73;;;132.90;;
5465;SDS011;2755;50.728;7.108;2023-08-06T14:00:01;176.17;;;134.57;;
5465;SDS011;2755;50.728;7.108;2023-08-06T14:02:27;174.83;;;134.43;;
5465;SDS011;2755;50.728;7.108;2023-08-06T14:04:53;174.90;;;133.00;;
5465;SDS011;2755;50.728;7.108;2023-08-06T14:07:19;179.53;;;139.83;;
5465;SDS011;2755;50.728;7.108;2023-08-06T14:09:44;174.43;;;132.50;;
5465;SDS011;2755;50.728;7.108;2023-08-06T14:12:12;176.40;;;135.77;;
5465;SDS011;2755;50.728;7.108;2023-08-06T14:14:38;173.57;;;129.23;;
5465;SDS011;2755;50.728;7.108;2023-08-06T14:17:04;175.00;;;133.90;;
5465;SDS011;2755;50.728;7.108;2023-08-06T14:19:29;173.37;;;130.07;;
5465;SDS011;2755;50.728;7.108;2023-08-06T14:21:55;179.17;;;139.93;;
5465;SDS011;2755;50.728;7.108;2023-08-06T14:24:21;173.07;;;124.83;;
5465;SDS011;2755;50.728;7.108;2023-08-06T14:26:47;179.37;;;138.63;;
5465;SDS011;2755;50.728;7.108;2023-08-06T14:29:12;180.07;;;142.90;;
5465;SDS011;2755;50.728;7.108;2023-08-06T14:31:39;174.77;;;133.47;;
5465;SDS011;2755;50.728;7.108;2023-08-06T14:34:05;176.87;;;135.00;;